Time;durP1;ratioP1;P1;durP2;ratioP2;P2;SDS_P1;SDS_P2;PMS_P1;PMS_P2;Temp;Humidity;BMP_temperature;BMP_pressure;BME280_temperature;BME280_humidity;BME280_pressure;Samples;Min_cycle;Max_cycle;Signal;HPM_P1;HPM_P2
2022/10/18 00:01:49;;;;;;;;;;;231.10;2252.80;;;;;;5093623;28;19916;-68
2022/10/18 00:04:15;;;;;;;;;;;231.00;2252.80;;;;;;5093792;28;19920;-67
2022/10/18 00:06:40;;;;;;;;;;;231.00;2252.80;;;;;;5093742;28;19916;-65
2022/10/18 00:09:06;;;;;;;;;;;231.00;2252.80;;;;;;5093766;28;20370;-63
2022/10/18 00:11:31;;;;;;;;;;;230.90;2252.80;;;;;;5093538;28;19908;-61
2022/10/18 00:13:57;;;;;;;;;;;230.90;2252.80;;;;;;5093304;28;19995;-61
2022/10/18 00:16:23;;;;;;;;;;;230.80;2252.80;;;;;;5093611;28;19954;-64
2022/10/18 00:18:49;;;;;;;;;;;230.80;2252.80;;;;;;5093280;28;19912;-64
2022/10/18 00:21:15;;;;;;;;;;;230.70;2252.80;;;;;;5093432;28;20289;-63
2022/10/18 00:23:41;;;;;;;;;;;230.80;2252.80;;;;;;5093357;28;19912;-61
2022/10/18 00:26:12;;;;;;;;;;;230.70;2252.80;;;;;;5093462;28;19947;-63
2022/10/18 00:28:38;;;;;;;;;;;230.80;2252.80;;;;;;5093084;28;19935;-62
2022/10/18 00:31:17;;;;;;;;;;;230.70;2252.80;;;;;;5093229;28;19991;-61
2022/10/18 00:33:44;;;;;;;;;;;230.70;2252.80;;;;;;5093101;28;20377;-62
2022/10/18 00:36:10;;;;;;;;;;;230.70;2252.80;;;;;;5092878;28;20003;-62
2022/10/18 00:38:36;;;;;;;;;;;230.70;2252.80;;;;;;5093250;28;19964;-66
2022/10/18 00:41:02;;;;;;;;;;;230.50;2252.80;;;;;;5093098;28;19999;-62
2022/10/18 00:43:27;;;;;;;;;;;230.60;2252.80;;;;;;5092924;28;19908;-61
2022/10/18 00:45:53;;;;;;;;;;;230.60;2252.80;;;;;;5092443;28;20274;-61
2022/10/18 00:48:19;;;;;;;;;;;230.60;2252.80;;;;;;5092706;28;19950;-61
2022/10/18 00:50:46;;;;;;;;;;;230.50;2252.80;;;;;;5093210;28;20274;-68
2022/10/18 00:53:15;;;;;;;;;;;230.50;2252.80;;;;;;5092655;28;19912;-62
2022/10/18 00:55:40;;;;;;;;;;;230.50;2252.80;;;;;;5092672;28;19908;-68
2022/10/18 00:58:07;;;;;;;;;;;230.50;2252.80;;;;;;5092729;28;20324;-69
2022/10/18 01:00:37;;;;;;;;;;;230.40;2252.80;;;;;;5092607;28;19908;-61
2022/10/18 01:03:03;;;;;;;;;;;205.70;2252.80;;;;;;5092467;28;20309;-68
2022/10/18 01:05:28;;;;;;;;;;;205.60;2252.80;;;;;;5092422;28;20022;-61
2022/10/18 01:08:06;;;;;;;;;;;205.70;2252.80;;;;;;5092271;28;20354;-66
2022/10/18 01:10:45;;;;;;;;;;;205.70;2252.80;;;;;;5092405;28;20289;-62
2022/10/18 01:13:13;;;;;;;;;;;205.60;2252.80;;;;;;5092282;28;19915;-62
2022/10/18 01:15:54;;;;;;;;;;;205.60;2252.80;;;;;;5092100;28;20251;-61
2022/10/18 01:18:22;;;;;;;;;;;205.60;2252.80;;;;;;5092245;28;20361;-67
2022/10/18 01:20:57;;;;;;;;;;;205.60;2252.80;;;;;;5092003;28;19953;-62
2022/10/18 01:23:29;;;;;;;;;;;205.60;2252.80;;;;;;5092169;28;19915;-67
2022/10/18 01:26:13;;;;;;;;;;;205.60;2252.80;;;;;;5092045;28;19916;-67
2022/10/18 01:28:41;;;;;;;;;;;205.40;2252.80;;;;;;5091944;28;20433;-60
2022/10/18 01:31:20;;;;;;;;;;;205.40;2252.80;;;;;;5092156;28;19912;-68
2022/10/18 01:33:47;;;;;;;;;;;205.40;2252.80;;;;;;5092025;28;19912;-60
2022/10/18 01:36:24;;;;;;;;;;;205.40;2252.80;;;;;;5092083;28;19912;-61
2022/10/18 01:38:52;;;;;;;;;;;205.40;2252.80;;;;;;5091749;28;19912;-67
2022/10/18 01:41:18;;;;;;;;;;;205.30;2252.80;;;;;;5092092;28;19934;-60
2022/10/18 01:43:45;;;;;;;;;;;205.30;2252.80;;;;;;5092031;28;19908;-61
2022/10/18 01:46:12;;;;;;;;;;;205.30;2252.80;;;;;;5091604;28;19946;-59
2022/10/18 01:48:38;;;;;;;;;;;205.30;2252.80;;;;;;5091462;28;19912;-61
2022/10/18 01:51:04;;;;;;;;;;;205.30;2252.80;;;;;;5091735;28;19908;-61
2022/10/18 01:53:30;;;;;;;;;;;205.30;2252.80;;;;;;5091453;28;20417;-69
2022/10/18 01:56:15;;;;;;;;;;;205.20;2252.80;;;;;;5091871;28;19935;-68
2022/10/18 01:58:52;;;;;;;;;;;205.10;2252.80;;;;;;5090592;28;19909;-68
2022/10/18 02:01:36;;;;;;;;;;;205.10;2252.80;;;;;;5091470;28;20002;-61
2022/10/18 02:04:10;;;;;;;;;;;205.10;2252.80;;;;;;5091069;28;19955;-62
2022/10/18 02:06:38;;;;;;;;;;;205.10;2252.80;;;;;;5091349;28;19959;-61
2022/10/18 02:09:08;;;;;;;;;;;205.00;2252.80;;;;;;5091367;28;20053;-68
2022/10/18 02:11:35;;;;;;;;;;;205.00;2252.80;;;;;;5091328;28;19908;-65
2022/10/18 02:14:20;;;;;;;;;;;205.00;2252.80;;;;;;5091055;28;19931;-68
2022/10/18 02:16:45;;;;;;;;;;;205.10;2252.80;;;;;;5091340;28;19908;-69
2022/10/18 02:19:22;;;;;;;;;;;205.00;2252.80;;;;;;5090975;28;19912;-67
2022/10/18 02:21:48;;;;;;;;;;;205.00;2252.80;;;;;;5091154;28;19915;-61
2022/10/18 02:24:14;;;;;;;;;;;205.10;2252.80;;;;;;5091080;28;19916;-69
2022/10/18 02:26:40;;;;;;;;;;;205.10;2252.80;;;;;;5090975;28;19915;-69
2022/10/18 02:29:06;;;;;;;;;;;204.90;2252.80;;;;;;5090908;28;19947;-63
2022/10/18 02:31:38;;;;;;;;;;;204.90;2252.80;;;;;;5090782;28;19908;-61
2022/10/18 02:34:07;;;;;;;;;;;204.80;2252.80;;;;;;5090867;28;20389;-68
2022/10/18 02:36:42;;;;;;;;;;;204.90;2252.80;;;;;;5090906;28;20285;-61
2022/10/18 02:39:13;;;;;;;;;;;204.80;2252.80;;;;;;5090886;28;20690;-61
2022/10/18 02:41:39;;;;;;;;;;;180.00;2252.80;;;;;;5090642;28;19962;-65
2022/10/18 02:44:04;;;;;;;;;;;180.00;2252.80;;;;;;5090982;28;19963;-60
2022/10/18 02:46:30;;;;;;;;;;;179.80;2252.80;;;;;;5090772;28;20338;-61
2022/10/18 02:48:55;;;;;;;;;;;179.90;2252.80;;;;;;5091039;28;19915;-61
2022/10/18 02:51:21;;;;;;;;;;;180.00;2252.80;;;;;;5090633;28;19912;-68
2022/10/18 02:53:46;;;;;;;;;;;180.00;2252.80;;;;;;5090894;28;19930;-67
2022/10/18 02:56:12;;;;;;;;;;;179.40;2252.80;;;;;;5090471;28;19908;-61
2022/10/18 02:58:37;;;;;;;;;;;180.10;2252.80;;;;;;5090372;28;19916;-61
2022/10/18 03:01:03;;;;;;;;;;;180.10;2252.80;;;;;;5090908;28;19908;-61
2022/10/18 03:03:29;;;;;;;;;;;180.10;2252.80;;;;;;5090346;28;20366;-61
2022/10/18 03:05:54;;;;;;;;;;;180.10;2252.80;;;;;;5090409;28;20341;-61
2022/10/18 03:08:21;;;;;;;;;;;180.10;2252.80;;;;;;5090002;28;19912;-64
2022/10/18 03:10:47;;;;;;;;;;;180.00;2252.80;;;;;;5094484;28;19919;-67
2022/10/18 03:13:12;;;;;;;;;;;180.00;2252.80;;;;;;5094332;28;19908;-67
2022/10/18 03:15:38;;;;;;;;;;;180.00;2252.80;;;;;;5094520;28;19912;-61
2022/10/18 03:18:03;;;;;;;;;;;179.90;2252.80;;;;;;5094866;28;19908;-65
2022/10/18 03:20:29;;;;;;;;;;;179.90;2252.80;;;;;;5094560;28;20284;-60
2022/10/18 03:22:55;;;;;;;;;;;179.80;2252.80;;;;;;5094733;28;19908;-61
2022/10/18 03:25:20;;;;;;;;;;;179.60;2252.80;;;;;;5094352;28;20251;-67
2022/10/18 03:27:46;;;;;;;;;;;179.60;2252.80;;;;;;5094631;28;19912;-63
2022/10/18 03:30:12;;;;;;;;;;;179.60;2252.80;;;;;;5094159;28;19929;-61
2022/10/18 03:32:38;;;;;;;;;;;179.60;2252.80;;;;;;5094307;28;19912;-61
2022/10/18 03:35:04;;;;;;;;;;;179.50;2252.80;;;;;;5094193;28;19912;-61
2022/10/18 03:37:30;;;;;;;;;;;179.60;2252.80;;;;;;5094056;28;19912;-68
2022/10/18 03:39:56;;;;;;;;;;;179.60;2252.80;;;;;;5094243;28;20255;-60
2022/10/18 03:42:21;;;;;;;;;;;179.60;2252.80;;;;;;5094009;28;19912;-65
2022/10/18 03:44:47;;;;;;;;;;;179.60;2252.80;;;;;;5094164;28;19922;-69
2022/10/18 03:47:12;;;;;;;;;;;179.60;2252.80;;;;;;5093987;28;19914;-60
2022/10/18 03:49:38;;;;;;;;;;;179.60;2252.80;;;;;;5094008;28;19951;-61
2022/10/18 03:52:03;;;;;;;;;;;179.50;2252.80;;;;;;5093889;28;20392;-68
2022/10/18 03:54:29;;;;;;;;;;;179.60;2252.80;;;;;;5093798;28;19908;-62
2022/10/18 03:56:55;;;;;;;;;;;179.60;2252.80;;;;;;5093891;28;19915;-61
2022/10/18 03:59:21;;;;;;;;;;;179.60;2252.80;;;;;;5093737;28;19908;-61
2022/10/18 04:01:47;;;;;;;;;;;179.60;2252.80;;;;;;5093983;28;19909;-65
2022/10/18 04:04:12;;;;;;;;;;;179.90;2252.80;;;;;;5093434;28;19959;-63
2022/10/18 04:06:38;;;;;;;;;;;179.50;2252.80;;;;;;5093676;28;19927;-61
2022/10/18 04:09:03;;;;;;;;;;;179.50;2252.80;;;;;;5093619;28;19945;-61
2022/10/18 04:11:29;;;;;;;;;;;179.50;2252.80;;;;;;5093484;28;20002;-61
2022/10/18 04:13:54;;;;;;;;;;;179.50;2252.80;;;;;;5093515;28;19996;-60
2022/10/18 04:16:20;;;;;;;;;;;179.50;2252.80;;;;;;5093298;28;19908;-65
2022/10/18 04:18:45;;;;;;;;;;;179.40;2252.80;;;;;;5093627;28;19908;-61
2022/10/18 04:21:11;;;;;;;;;;;179.40;2252.80;;;;;;5092437;28;20396;-61
2022/10/18 04:23:36;;;;;;;;;;;179.50;2252.80;;;;;;5093490;28;19908;-61
2022/10/18 04:26:02;;;;;;;;;;;179.40;2252.80;;;;;;5093119;28;20007;-65
2022/10/18 04:28:27;;;;;;;;;;;179.40;2252.80;;;;;;5093345;28;19908;-61
2022/10/18 04:30:53;;;;;;;;;;;179.30;2252.80;;;;;;5093221;28;20365;-61
2022/10/18 04:33:19;;;;;;;;;;;179.30;2252.80;;;;;;5093154;28;20370;-61
2022/10/18 04:35:45;;;;;;;;;;;179.20;2252.80;;;;;;5093169;28;19912;-60
2022/10/18 04:38:10;;;;;;;;;;;154.40;2252.80;;;;;;5092894;28;20290;-63
2022/10/18 04:40:36;;;;;;;;;;;154.40;2252.80;;;;;;5093041;28;19915;-61
2022/10/18 04:43:03;;;;;;;;;;;154.50;2252.80;;;;;;5092970;28;19908;-65
2022/10/18 04:45:28;;;;;;;;;;;154.50;2252.80;;;;;;5092677;28;20369;-61
2022/10/18 04:47:54;;;;;;;;;;;154.50;2252.80;;;;;;5092953;28;19908;-61
2022/10/18 04:50:20;;;;;;;;;;;179.20;2252.80;;;;;;5092641;28;20002;-61
2022/10/18 04:52:45;;;;;;;;;;;154.50;2252.80;;;;;;5092789;28;19999;-70
2022/10/18 04:55:11;;;;;;;;;;;179.20;2252.80;;;;;;5092669;28;19912;-61
2022/10/18 04:57:36;;;;;;;;;;;179.20;2252.80;;;;;;5092754;28;19908;-61
2022/10/18 05:00:02;;;;;;;;;;;179.20;2252.80;;;;;;5092572;28;19908;-61
2022/10/18 05:02:28;;;;;;;;;;;179.30;2252.80;;;;;;5092387;28;20255;-65
2022/10/18 05:04:53;;;;;;;;;;;179.40;2252.80;;;;;;5092412;28;19927;-61
2022/10/18 05:07:19;;;;;;;;;;;179.40;2252.80;;;;;;5092268;28;19935;-60
2022/10/18 05:09:44;;;;;;;;;;;179.30;2252.80;;;;;;5092501;28;19927;-61
2022/10/18 05:12:10;;;;;;;;;;;154.50;2252.80;;;;;;5092365;28;19953;-61
2022/10/18 05:14:35;;;;;;;;;;;154.50;2252.80;;;;;;5092546;28;19908;-61
2022/10/18 05:17:01;;;;;;;;;;;154.40;2252.80;;;;;;5092055;28;20007;-60
2022/10/18 05:19:27;;;;;;;;;;;154.50;2252.80;;;;;;5092246;28;19908;-60
2022/10/18 05:21:52;;;;;;;;;;;154.50;2252.80;;;;;;5092183;28;20015;-60
2022/10/18 05:24:18;;;;;;;;;;;179.20;2252.80;;;;;;5092046;28;20370;-60
2022/10/18 05:26:43;;;;;;;;;;;179.40;2252.80;;;;;;5092440;28;20404;-60
2022/10/18 05:29:09;;;;;;;;;;;179.40;2252.80;;;;;;5091957;28;19908;-67
2022/10/18 05:31:34;;;;;;;;;;;179.30;2252.80;;;;;;5092101;28;19908;-58
2022/10/18 05:34:00;;;;;;;;;;;179.30;2252.80;;;;;;5090760;28;19919;-58
2022/10/18 05:36:26;;;;;;;;;;;179.40;2252.80;;;;;;5092181;28;19912;-58
2022/10/18 05:38:52;;;;;;;;;;;179.40;2252.80;;;;;;5091781;28;19912;-59
2022/10/18 05:41:18;;;;;;;;;;;179.30;2252.80;;;;;;5091524;28;19933;-59
2022/10/18 05:43:44;;;;;;;;;;;179.30;2252.80;;;;;;5092110;28;19908;-59
2022/10/18 05:46:11;;;;;;;;;;;179.50;2252.80;;;;;;5091530;28;19916;-60
2022/10/18 05:48:37;;;;;;;;;;;179.60;2252.80;;;;;;5091774;28;19998;-59
2022/10/18 05:51:03;;;;;;;;;;;179.60;2252.80;;;;;;5091922;28;20395;-60
2022/10/18 05:53:29;;;;;;;;;;;179.60;2252.80;;;;;;5091455;28;19908;-60
2022/10/18 05:55:54;;;;;;;;;;;179.60;2252.80;;;;;;5091846;28;20267;-59
2022/10/18 05:58:20;;;;;;;;;;;179.50;2252.80;;;;;;5091484;28;19909;-60
2022/10/18 06:00:45;;;;;;;;;;;179.60;2252.80;;;;;;5091511;28;20014;-59
2022/10/18 06:03:11;;;;;;;;;;;179.70;2252.80;;;;;;5091257;28;19934;-59
2022/10/18 06:05:36;;;;;;;;;;;179.70;2252.80;;;;;;5091450;28;19920;-59
2022/10/18 06:08:02;;;;;;;;;;;179.70;2252.80;;;;;;5090906;28;19908;-59
2022/10/18 06:10:27;;;;;;;;;;;179.90;2252.80;;;;;;5091171;28;19916;-59
2022/10/18 06:12:53;;;;;;;;;;;180.10;2252.80;;;;;;5091244;28;19915;-59
2022/10/18 06:15:18;;;;;;;;;;;204.80;2252.80;;;;;;5091226;28;19908;-60
2022/10/18 06:17:44;;;;;;;;;;;204.90;2252.80;;;;;;5091308;28;20278;-59
2022/10/18 06:20:10;;;;;;;;;;;205.00;2252.80;;;;;;5090899;28;19912;-59
2022/10/18 06:22:35;;;;;;;;;;;205.40;2252.80;;;;;;5091113;28;20316;-59
2022/10/18 06:25:01;;;;;;;;;;;205.60;2252.80;;;;;;5090944;28;19920;-59
2022/10/18 06:27:26;;;;;;;;;;;230.40;2252.80;;;;;;5091121;28;19951;-59
2022/10/18 06:29:52;;;;;;;;;;;230.40;2252.80;;;;;;5090639;28;19908;-59
2022/10/18 06:32:18;;;;;;;;;;;230.50;2252.80;;;;;;5090863;28;19908;-60
2022/10/18 06:34:44;;;;;;;;;;;230.60;2252.80;;;;;;5090905;28;19958;-59
2022/10/18 06:37:10;;;;;;;;;;;230.60;2252.80;;;;;;5090871;28;19959;-59
2022/10/18 06:39:35;;;;;;;;;;;230.60;2252.80;;;;;;5091105;28;19912;-59
2022/10/18 06:42:01;;;;;;;;;;;230.70;2252.80;;;;;;5090636;28;19912;-59
2022/10/18 06:44:26;;;;;;;;;;;230.70;2252.80;;;;;;5090417;28;19912;-59
2022/10/18 06:46:52;;;;;;;;;;;231.10;2252.80;;;;;;5090605;28;19952;-59
2022/10/18 06:49:18;;;;;;;;;;;230.90;2252.80;;;;;;5090593;28;19908;-60
2022/10/18 06:51:44;;;;;;;;;;;230.90;2252.80;;;;;;5090772;28;19908;-59
2022/10/18 06:54:09;;;;;;;;;;;231.00;2252.80;;;;;;5090804;28;19909;-60
2022/10/18 06:56:35;;;;;;;;;;;231.10;2252.80;;;;;;5090683;28;19914;-60
2022/10/18 06:59:00;;;;;;;;;;;231.20;2252.80;;;;;;5090490;28;19908;-60
2022/10/18 07:01:27;;;;;;;;;;;231.20;2252.80;;;;;;5090777;28;19912;-60
2022/10/18 07:03:53;;;;;;;;;;;231.30;2252.80;;;;;;5090415;28;20298;-60
2022/10/18 07:06:19;;;;;;;;;;;256.30;2252.80;;;;;;5090357;28;19916;-59
2022/10/18 07:08:45;;;;;;;;;;;256.90;2252.80;;;;;;5090568;28;19920;-60
2022/10/18 07:11:19;;;;;;;;;;;333.50;2329.60;;;;;;5088412;28;20305;-60
2022/10/18 07:13:45;;;;;;;;;;;410.20;2227.20;;;;;;5090636;28;19922;-60
2022/10/18 07:16:12;;;;;;;;;;;461.60;1996.80;;;;;;5090232;28;19908;-61
2022/10/18 07:18:39;;;;;;;;;;;512.30;1817.60;;;;;;5090298;28;19958;-61
2022/10/18 07:21:05;;;;;;;;;;;563.20;1740.80;;;;;;5090331;28;19908;-61
2022/10/18 07:23:33;;;;;;;;;;;563.70;1612.80;;;;;;5090223;28;19908;-60
2022/10/18 07:26:00;;;;;;;;;;;563.70;1587.20;;;;;;5090257;28;19916;-61
2022/10/18 07:28:26;;;;;;;;;;;563.90;1587.20;;;;;;5090436;28;19998;-61
2022/10/18 07:30:52;;;;;;;;;;;589.20;1510.40;;;;;;5090144;28;20423;-61
2022/10/18 07:33:19;;;;;;;;;;;614.60;1459.20;;;;;;5090072;28;19916;-61
2022/10/18 07:35:45;;;;;;;;;;;615.20;1433.60;;;;;;5090444;28;19912;-61
2022/10/18 07:38:10;;;;;;;;;;;691.30;1331.20;;;;;;5090039;28;19915;-61
2022/10/18 07:40:36;;;;;;;;;;;666.30;1305.60;;;;;;5089584;28;19973;-61
2022/10/18 07:43:02;;;;;;;;;;;665.90;1331.20;;;;;;5090039;28;20017;-61
2022/10/18 07:45:27;;;;;;;;;;;666.30;1280.00;;;;;;5090167;28;20015;-61
2022/10/18 07:47:56;;;;;;;;;;;717.40;1228.80;;;;;;5090258;28;20273;-61
2022/10/18 07:50:22;;;;;;;;;;;742.80;1228.80;;;;;;5089931;28;19935;-61
2022/10/18 07:52:47;;;;;;;;;;;717.60;1203.20;;;;;;5090135;28;20426;-61
2022/10/18 07:55:13;;;;;;;;;;;743.30;1203.20;;;;;;5090330;28;19911;-60
2022/10/18 07:57:38;;;;;;;;;;;743.30;1177.60;;;;;;5093231;28;20377;-61
2022/10/18 08:00:04;;;;;;;;;;;768.40;1152.00;;;;;;5093704;28;19908;-61
2022/10/18 08:02:30;;;;;;;;;;;742.50;1228.80;;;;;;5093684;28;20374;-62
2022/10/18 08:04:55;;;;;;;;;;;768.70;1126.40;;;;;;5093575;28;19927;-61
2022/10/18 08:07:21;;;;;;;;;;;794.00;1126.40;;;;;;5093530;28;20413;-61
2022/10/18 08:09:47;;;;;;;;;;;793.90;1126.40;;;;;;5093644;28;20309;-62
2022/10/18 08:12:14;;;;;;;;;;;819.50;1126.40;;;;;;5093496;28;19919;-61
2022/10/18 08:14:39;;;;;;;;;;;819.90;1049.60;;;;;;5093356;28;19909;-61
2022/10/18 08:17:05;;;;;;;;;;;819.70;1049.60;;;;;;5093577;28;19908;-62
2022/10/18 08:19:31;;;;;;;;;;;845.10;1049.60;;;;;;5093329;28;20483;-61
2022/10/18 08:21:56;;;;;;;;;;;819.70;1075.20;;;;;;5093377;28;20369;-60
2022/10/18 08:24:22;;;;;;;;;;;794.40;1075.20;;;;;;5093361;28;19920;-61
2022/10/18 08:26:48;;;;;;;;;;;819.70;1049.60;;;;;;5093365;28;19915;-62
2022/10/18 08:29:13;;;;;;;;;;;819.80;1024.00;;;;;;5093334;28;20333;-60
2022/10/18 08:31:39;;;;;;;;;;;845.20;1024.00;;;;;;5091647;28;19915;-62
2022/10/18 08:34:04;;;;;;;;;;;845.10;1049.60;;;;;;5093347;28;19908;-61
2022/10/18 08:36:30;;;;;;;;;;;819.50;1024.00;;;;;;5092880;28;19970;-60
2022/10/18 08:38:55;;;;;;;;;;;794.50;1049.60;;;;;;5092992;28;19919;-61
2022/10/18 08:41:36;;;;;;;;;;;819.60;1049.60;;;;;;5092884;28;20061;-61
2022/10/18 08:44:14;;;;;;;;;;;845.00;1024.00;;;;;;5092788;28;20403;-61
2022/10/18 08:46:43;;;;;;;;;;;768.80;1075.20;;;;;;5092680;28;19994;-62
2022/10/18 08:49:14;;;;;;;;;;;793.60;1100.80;;;;;;5092837;28;19912;-62
2022/10/18 08:51:45;;;;;;;;;;;768.50;1100.80;;;;;;5092598;28;19948;-61
2022/10/18 08:54:12;;;;;;;;;;;768.90;1075.20;;;;;;5092634;28;20007;-61
2022/10/18 08:56:41;;;;;;;;;;;768.10;1126.40;;;;;;5092734;28;19962;-61
2022/10/18 08:59:10;;;;;;;;;;;743.20;1100.80;;;;;;5092855;28;20387;-61
2022/10/18 09:02:08;;;;;;;;;;;768.10;1075.20;;;;;;5092769;28;19916;-61
2022/10/18 09:04:34;;;;;;;;;;;793.80;1100.80;;;;;;5080087;28;20482;-60
2022/10/18 09:07:06;;;;;;;;;;;768.20;1075.20;;;;;;5092230;28;20282;-61
2022/10/18 09:09:38;;;;;;;;;;;692.00;1126.40;;;;;;5091283;28;20289;-60
2022/10/18 09:12:06;;;;;;;;;;;666.50;1203.20;;;;;;5092616;28;19908;-60
2022/10/18 09:14:47;;;;;;;;;;;640.70;1228.80;;;;;;5092343;28;19912;-60
2022/10/18 09:17:30;;;;;;;;;;;640.00;1280.00;;;;;;5092356;28;19912;-60
2022/10/18 09:19:56;;;;;;;;;;;589.70;1331.20;;;;;;5092198;28;20019;-59
2022/10/18 09:22:31;;;;;;;;;;;589.10;1382.40;;;;;;5092113;28;19970;-60
2022/10/18 09:25:04;;;;;;;;;;;563.70;1433.60;;;;;;5092159;28;20312;-59
2022/10/18 09:27:56;;;;;;;;;;;563.60;1459.20;;;;;;5092274;28;19908;-60
2022/10/18 09:30:25;;;;;;;;;;;563.80;1459.20;;;;;;5090609;28;19919;-60
2022/10/18 09:33:00;;;;;;;;;;;563.70;1459.20;;;;;;5091702;28;19915;-61
2022/10/18 09:35:32;;;;;;;;;;;563.20;1484.80;;;;;;5091938;28;19938;-60
2022/10/18 09:38:03;;;;;;;;;;;538.40;1459.20;;;;;;5091911;28;19908;-60
2022/10/18 09:40:29;;;;;;;;;;;538.20;1510.40;;;;;;5091614;28;20300;-60
2022/10/18 09:43:18;;;;;;;;;;;538.10;1433.60;;;;;;5091980;28;20002;-60
2022/10/18 09:45:44;;;;;;;;;;;538.40;1459.20;;;;;;5069429;28;20349;-59
2022/10/18 09:48:16;;;;;;;;;;;563.40;1459.20;;;;;;5069269;28;19912;-60
2022/10/18 09:50:44;;;;;;;;;;;563.30;1484.80;;;;;;5069072;28;19912;-59
2022/10/18 09:53:15;;;;;;;;;;;563.50;1433.60;;;;;;5068956;28;20383;-60
2022/10/18 09:55:50;;;;;;;;;;;563.60;1382.40;;;;;;5068908;28;19908;-60
2022/10/18 09:58:16;;;;;;;;;;;563.60;1459.20;;;;;;5069299;28;19909;-60
2022/10/18 10:00:47;;;;;;;;;;;563.60;1433.60;;;;;;5068722;28;19912;-60
2022/10/18 10:03:13;;;;;;;;;;;563.20;1459.20;;;;;;5068771;28;19913;-60
2022/10/18 10:05:39;;;;;;;;;;;563.40;1433.60;;;;;;5068731;28;19979;-60
2022/10/18 10:08:05;;;;;;;;;;;563.50;1459.20;;;;;;5068841;28;19908;-60
2022/10/18 10:10:32;;;;;;;;;;;538.50;1408.00;;;;;;5068632;28;19917;-60
2022/10/18 10:13:02;;;;;;;;;;;538.40;1408.00;;;;;;5068983;28;19915;-60
2022/10/18 10:15:28;;;;;;;;;;;538.50;1459.20;;;;;;5068474;28;19912;-60
2022/10/18 10:17:54;;;;;;;;;;;538.50;1433.60;;;;;;5068745;28;19915;-60
2022/10/18 10:20:22;;;;;;;;;;;538.30;1433.60;;;;;;5068053;28;19908;-60
2022/10/18 10:22:48;;;;;;;;;;;538.30;1459.20;;;;;;5080794;28;19909;-60
2022/10/18 10:25:22;;;;;;;;;;;538.40;1459.20;;;;;;5091098;28;19959;-59
2022/10/18 10:27:48;;;;;;;;;;;538.30;1459.20;;;;;;5091319;28;19908;-60
2022/10/18 10:30:24;;;;;;;;;;;538.00;1484.80;;;;;;5091302;28;20003;-60
2022/10/18 10:32:50;;;;;;;;;;;537.80;1484.80;;;;;;5090736;28;20365;-60
2022/10/18 10:35:42;;;;;;;;;;;537.80;1510.40;;;;;;5091141;28;19955;-60
2022/10/18 10:38:21;;;;;;;;;;;538.10;1484.80;;;;;;5089276;28;19956;-60
2022/10/18 10:40:49;;;;;;;;;;;538.20;1484.80;;;;;;5091251;28;20007;-60
2022/10/18 10:43:17;;;;;;;;;;;538.10;1510.40;;;;;;5091164;28;19961;-59
2022/10/18 10:45:54;;;;;;;;;;;538.00;1510.40;;;;;;5090614;28;20329;-59
2022/10/18 10:48:20;;;;;;;;;;;538.10;1510.40;;;;;;5090517;28;19908;-60
2022/10/18 10:50:49;;;;;;;;;;;538.10;1536.00;;;;;;5090886;28;20388;-60
2022/10/18 10:53:26;;;;;;;;;;;538.00;1561.60;;;;;;5090829;28;20288;-60
2022/10/18 10:55:53;;;;;;;;;;;538.00;1561.60;;;;;;5090400;28;20369;-60
2022/10/18 10:58:18;;;;;;;;;;;537.80;1561.60;;;;;;5090406;28;20365;-59
2022/10/18 11:00:44;;;;;;;;;;;538.00;1561.60;;;;;;5090810;28;19955;-59
2022/10/18 11:03:14;;;;;;;;;;;538.00;1561.60;;;;;;5090392;28;20281;-59
2022/10/18 11:05:44;;;;;;;;;;;538.20;1587.20;;;;;;5090356;28;19924;-58
2022/10/18 11:08:10;;;;;;;;;;;538.20;1561.60;;;;;;5090410;28;19930;-59
2022/10/18 11:10:47;;;;;;;;;;;538.10;1561.60;;;;;;5090109;28;19927;-59
2022/10/18 11:13:23;;;;;;;;;;;538.10;1561.60;;;;;;5071094;28;19916;-58
2022/10/18 11:15:53;;;;;;;;;;;538.40;1561.60;;;;;;5089800;28;19930;-59
2022/10/18 11:18:24;;;;;;;;;;;538.40;1561.60;;;;;;5090245;28;19908;-60
2022/10/18 11:21:19;;;;;;;;;;;538.50;1561.60;;;;;;5090384;28;19912;-60
2022/10/18 11:23:45;;;;;;;;;;;538.50;1561.60;;;;;;5048020;28;20422;-60
2022/10/18 11:26:10;;;;;;;;;;;563.20;1561.60;;;;;;5047657;28;20019;-60
2022/10/18 11:28:45;;;;;;;;;;;563.30;1561.60;;;;;;5048021;28;19978;-59
2022/10/18 11:31:29;;;;;;;;;;;563.30;1536.00;;;;;;5048610;28;19915;-60
2022/10/18 11:34:03;;;;;;;;;;;563.20;1561.60;;;;;;5051833;28;19919;-60
2022/10/18 11:36:46;;;;;;;;;;;563.20;1536.00;;;;;;5051826;28;19913;-60
2022/10/18 11:39:20;;;;;;;;;;;563.30;1561.60;;;;;;5051587;28;19995;-59
2022/10/18 11:41:46;;;;;;;;;;;563.40;1587.20;;;;;;5051973;28;19909;-60
2022/10/18 11:44:14;;;;;;;;;;;563.40;1561.60;;;;;;5051423;28;20306;-60
2022/10/18 11:46:42;;;;;;;;;;;563.60;1587.20;;;;;;5051478;28;19909;-61
2022/10/18 11:49:10;;;;;;;;;;;563.60;1561.60;;;;;;5051494;28;19958;-60
2022/10/18 11:51:38;;;;;;;;;;;563.50;1536.00;;;;;;5051633;28;20291;-60
2022/10/18 11:54:19;;;;;;;;;;;563.60;1536.00;;;;;;5051535;28;19996;-60
2022/10/18 11:56:58;;;;;;;;;;;563.60;1510.40;;;;;;5051585;28;19955;-60
2022/10/18 11:59:37;;;;;;;;;;;563.60;1510.40;;;;;;5059725;28;19912;-60
2022/10/18 12:02:15;;;;;;;;;;;563.50;1484.80;;;;;;5093630;28;19912;-61
2022/10/18 12:04:43;;;;;;;;;;;563.60;1484.80;;;;;;5093307;28;19916;-61
2022/10/18 12:07:10;;;;;;;;;;;563.60;1484.80;;;;;;5093725;28;19919;-60
2022/10/18 12:09:37;;;;;;;;;;;563.60;1510.40;;;;;;5093610;28;20282;-60
2022/10/18 12:12:07;;;;;;;;;;;563.70;1484.80;;;;;;5093727;28;19908;-60
2022/10/18 12:14:42;;;;;;;;;;;563.80;1459.20;;;;;;5093681;28;19918;-60
2022/10/18 12:17:14;;;;;;;;;;;563.70;1484.80;;;;;;5093380;28;19912;-60
2022/10/18 12:19:40;;;;;;;;;;;563.60;1459.20;;;;;;5093340;28;20350;-60
2022/10/18 12:22:29;;;;;;;;;;;563.80;1459.20;;;;;;5093521;28;19937;-61
2022/10/18 12:24:54;;;;;;;;;;;563.70;1459.20;;;;;;5050775;28;19923;-60
2022/10/18 12:27:26;;;;;;;;;;;563.70;1459.20;;;;;;5050756;28;19908;-61
2022/10/18 12:30:11;;;;;;;;;;;563.70;1433.60;;;;;;5050337;28;19951;-58
2022/10/18 12:32:38;;;;;;;;;;;563.70;1433.60;;;;;;5050544;28;20429;-60
2022/10/18 12:35:06;;;;;;;;;;;563.70;1433.60;;;;;;5050647;28;19913;-60
2022/10/18 12:37:46;;;;;;;;;;;563.70;1459.20;;;;;;5050637;28;19912;-60
2022/10/18 12:40:16;;;;;;;;;;;563.70;1433.60;;;;;;5050387;28;20281;-60
2022/10/18 12:42:45;;;;;;;;;;;563.70;1433.60;;;;;;5049860;28;20342;-60
2022/10/18 12:45:28;;;;;;;;;;;563.80;1433.60;;;;;;5047268;28;20068;-59
2022/10/18 12:47:57;;;;;;;;;;;563.70;1433.60;;;;;;5041610;28;20390;-61
2022/10/18 12:50:34;;;;;;;;;;;563.80;1433.60;;;;;;5038795;28;20359;-60
2022/10/18 12:53:05;;;;;;;;;;;563.90;1459.20;;;;;;5038867;28;19995;-58
2022/10/18 12:55:35;;;;;;;;;;;563.80;1484.80;;;;;;5040228;28;19908;-59
2022/10/18 12:58:02;;;;;;;;;;;563.90;1510.40;;;;;;5035455;28;19916;-60
2022/10/18 13:00:28;;;;;;;;;;;563.80;1536.00;;;;;;5030191;28;20346;-61
2022/10/18 13:03:10;;;;;;;;;;;563.80;1536.00;;;;;;5068701;28;19909;-61
2022/10/18 13:05:50;;;;;;;;;;;563.90;1536.00;;;;;;5071059;28;19924;-60
2022/10/18 13:08:37;;;;;;;;;;;563.90;1510.40;;;;;;5069833;28;19916;-60
2022/10/18 13:11:08;;;;;;;;;;;563.90;1536.00;;;;;;5070468;28;19920;-61
2022/10/18 13:13:53;;;;;;;;;;;564.00;1561.60;;;;;;5070769;28;19954;-60
2022/10/18 13:16:21;;;;;;;;;;;563.90;1536.00;;;;;;5070516;28;19969;-60
2022/10/18 13:18:47;;;;;;;;;;;563.70;1510.40;;;;;;5070540;28;19908;-60
2022/10/18 13:21:15;;;;;;;;;;;563.60;1510.40;;;;;;5069887;28;19915;-60
2022/10/18 13:23:59;;;;;;;;;;;563.70;1536.00;;;;;;5070296;28;20015;-60
2022/10/18 13:26:30;;;;;;;;;;;563.80;1536.00;;;;;;5070511;28;19917;-61
2022/10/18 13:29:14;;;;;;;;;;;563.70;1510.40;;;;;;5070764;28;20412;-60
2022/10/18 13:31:39;;;;;;;;;;;563.70;1536.00;;;;;;5070299;28;19909;-61
2022/10/18 13:34:21;;;;;;;;;;;563.60;1536.00;;;;;;5069703;28;19916;-59
2022/10/18 13:37:04;;;;;;;;;;;563.40;1484.80;;;;;;5070162;28;19928;-60
2022/10/18 13:39:30;;;;;;;;;;;563.60;1510.40;;;;;;5070063;28;19913;-60
2022/10/18 13:41:56;;;;;;;;;;;563.70;1510.40;;;;;;5070120;28;20050;-60
2022/10/18 13:44:23;;;;;;;;;;;563.70;1536.00;;;;;;5069745;28;20397;-60
2022/10/18 13:46:49;;;;;;;;;;;563.70;1536.00;;;;;;5069388;28;20278;-60
2022/10/18 13:49:14;;;;;;;;;;;563.60;1536.00;;;;;;5069897;28;19909;-60
2022/10/18 13:51:40;;;;;;;;;;;563.60;1536.00;;;;;;5069639;28;19916;-61